Time;durP1;ratioP1;P1;durP2;ratioP2;P2;SDS_P1;SDS_P2;PMS_P1;PMS_P2;Temp;Humidity;BMP_temperature;BMP_pressure;BME280_temperature;BME280_humidity;BME280_pressure;Samples;Min_cycle;Max_cycle;Signal;HPM_P1;HPM_P2
2022/01/02 00:01:44;;;;;;;9.27;2.88;;;;;;;20.70;43.30;101759.31;7302360;19;131414;-64
2022/01/02 00:04:19;;;;;;;9.68;2.20;;;;;;;20.70;43.20;101753.75;7311916;19;130124;-65
2022/01/02 00:06:49;;;;;;;3.20;1.70;;;;;;;20.68;43.03;101755.91;7309068;19;129059;-65
2022/01/02 00:09:29;;;;;;;5.47;2.00;;;;;;;20.69;43.43;101756.75;7311157;19;131081;-65
2022/01/02 00:12:03;;;;;;;3.35;1.73;;;;;;;20.67;42.97;101750.59;7308945;19;131231;-64
2022/01/02 00:14:34;;;;;;;9.45;2.05;;;;;;;20.65;42.96;101753.59;7307341;19;130955;-64
2022/01/02 00:17:04;;;;;;;6.57;1.58;;;;;;;20.65;43.43;101780.56;7316522;19;129604;-64
2022/01/02 00:19:33;;;;;;;5.10;2.13;;;;;;;20.63;43.34;101769.66;7316385;19;131916;-64
2022/01/02 00:22:03;;;;;;;7.60;2.13;;;;;;;20.63;43.02;101774.41;7317757;19;132067;-64
2022/01/02 00:24:31;;;;;;;4.05;2.25;;;;;;;20.62;43.22;101756.03;7313367;19;129987;-65
2022/01/02 00:26:59;;;;;;;9.65;2.03;;;;;;;20.60;43.15;101756.28;7317166;19;129630;-65
2022/01/02 00:29:26;;;;;;;6.25;1.80;;;;;;;20.58;43.39;101748.16;7317623;19;132187;-65
2022/01/02 00:31:54;;;;;;;7.63;1.70;;;;;;;20.58;43.33;101745.38;7314467;19;131698;-65
2022/01/02 00:34:22;;;;;;;5.90;2.28;;;;;;;20.57;43.00;101742.84;7316704;19;129119;-65
2022/01/02 00:36:49;;;;;;;8.07;1.90;;;;;;;20.56;43.38;101750.31;7315785;19;130775;-65
2022/01/02 00:39:17;;;;;;;4.65;2.10;;;;;;;20.56;43.19;101747.53;7316303;19;130997;-65
2022/01/02 00:41:57;;;;;;;5.60;2.08;;;;;;;20.55;43.30;101740.31;7315045;19;132058;-64
2022/01/02 00:44:43;;;;;;;5.20;1.83;;;;;;;20.54;43.19;101729.41;7316032;19;128912;-64
2022/01/02 00:47:22;;;;;;;6.93;2.28;;;;;;;20.52;43.03;101729.66;7316669;19;131486;-64
2022/01/02 00:50:07;;;;;;;7.28;2.00;;;;;;;20.53;43.00;101724.94;7310806;19;131180;-65
2022/01/02 00:52:36;;;;;;;4.32;1.95;;;;;;;20.51;43.25;101716.84;7313980;19;132001;-65
2022/01/02 00:55:06;;;;;;;6.82;1.88;;;;;;;20.51;43.18;101710.44;7314603;19;131080;-65
2022/01/02 00:57:36;;;;;;;5.97;2.55;;;;;;;20.49;43.23;101707.06;7315921;19;135253;-65
2022/01/02 01:00:13;;;;;;;3.70;1.67;;;;;;;20.48;43.00;101706.22;7317398;19;131141;-64
2022/01/02 01:02:44;;;;;;;;;;;;;;;20.44;43.23;101719.75;7313247;19;131150;-64
2022/01/02 01:05:17;;;;;;;7.35;2.45;;;;;;;20.48;43.17;101699.81;7316366;19;129186;-65
2022/01/02 01:07:47;;;;;;;6.75;1.70;;;;;;;20.45;42.96;101701.97;7313494;19;129658;-64
2022/01/02 01:10:14;;;;;;;6.00;2.00;;;;;;;20.45;43.36;101698.34;7316545;19;132312;-65
2022/01/02 01:12:41;;;;;;;6.85;1.70;;;;;;;20.44;43.02;101700.28;7313354;19;131191;-65
2022/01/02 01:15:08;;;;;;;2.90;1.55;;;;;;;20.43;43.31;101692.19;7314582;19;129347;-64
2022/01/02 01:17:37;;;;;;;4.97;1.95;;;;;;;20.41;43.19;101681.31;7316374;19;129234;-64
2022/01/02 01:20:12;;;;;;;5.78;1.90;;;;;;;20.43;43.04;101678.31;7313428;19;132013;-64
2022/01/02 01:22:39;;;;;;;6.93;2.08;;;;;;;20.40;43.42;101676.81;7315106;19;132088;-64
2022/01/02 01:25:12;;;;;;;5.57;2.00;;;;;;;20.40;43.42;101681.56;7313392;19;129007;-64
2022/01/02 01:27:39;;;;;;;3.85;1.83;;;;;;;20.39;43.01;101669.56;7314747;19;128740;-64
2022/01/02 01:30:08;;;;;;;4.07;1.40;;;;;;;20.40;43.13;101678.78;7312507;19;131607;-64
2022/01/02 01:32:36;;;;;;;3.65;1.73;;;;;;;20.38;43.44;101678.16;7312048;19;131147;-64
2022/01/02 01:35:04;;;;;;;3.53;1.83;;;;;;;20.38;43.27;101672.59;7316091;19;129089;-64
2022/01/02 01:37:31;;;;;;;4.55;1.98;;;;;;;20.38;43.26;101669.81;7313403;19;128994;-64
2022/01/02 01:39:58;;;;;;;4.10;1.83;;;;;;;20.38;43.21;101669.81;7317101;19;131946;-64
2022/01/02 01:42:39;;;;;;;4.50;1.88;;;;;;;20.37;43.06;101670.91;7311205;19;131236;-64
2022/01/02 01:47:46;;;;;;;2.90;1.80;;;;;;;20.36;43.45;101663.66;7313934;19;128974;-65
2022/01/02 01:50:13;;;;;;;4.63;1.85;;;;;;;20.35;43.48;101637.81;7313571;19;131219;-64
2022/01/02 01:52:41;;;;;;;3.88;1.70;;;;;;;20.34;43.11;101643.59;7314792;19;131061;-64
2022/01/02 01:55:08;;;;;;;6.07;1.90;;;;;;;20.34;43.01;101651.94;7311761;19;130460;-64
2022/01/02 01:57:38;;;;;;;5.53;1.70;;;;;;;20.32;43.27;101645.75;7315880;19;128924;-64
2022/01/02 02:00:13;;;;;;;4.35;1.80;;;;;;;20.32;43.36;101654.97;7312234;19;131440;-64
2022/01/02 02:02:41;;;;;;;5.25;1.88;;;;;;;20.32;43.26;101649.41;7314127;19;131150;-64
2022/01/02 02:05:09;;;;;;;4.28;1.70;;;;;;;20.31;43.38;101635.75;7310233;19;131346;-64
2022/01/02 02:07:44;;;;;;;5.30;2.10;;;;;;;20.30;43.07;101626.56;7313124;19;131841;-64
2022/01/02 02:10:24;;;;;;;4.30;1.67;;;;;;;20.31;42.96;101624.66;7315743;19;131582;-65
2022/01/02 02:12:56;;;;;;;3.95;1.98;;;;;;;20.29;43.00;101610.97;7311107;19;136418;-64
2022/01/02 02:15:24;;;;;;;5.82;2.00;;;;;;;20.27;43.35;101596.47;7314150;19;129931;-65
2022/01/02 02:17:52;;;;;;;5.65;1.90;;;;;;;20.27;43.42;101602.03;7310027;19;131366;-65
2022/01/02 02:20:20;;;;;;;4.90;1.70;;;;;;;20.26;43.19;101609.53;7312405;19;131626;-64
2022/01/02 02:22:49;;;;;;;5.32;2.10;;;;;;;20.26;43.35;101614.22;7312583;19;131257;-65
2022/01/02 02:25:17;;;;;;;4.60;1.60;;;;;;;20.25;43.33;101613.41;7312665;19;130362;-64
2022/01/02 02:27:58;;;;;;;3.15;1.45;;;;;;;20.24;43.28;101606.16;7314110;19;129036;-64
2022/01/02 02:30:27;;;;;;;6.18;1.90;;;;;;;20.24;42.93;101605.31;7309826;19;131815;-64
2022/01/02 02:32:56;;;;;;;4.50;1.60;;;;;;;20.22;43.16;101605.53;7312568;19;131786;-64
2022/01/02 02:35:25;;;;;;;3.13;1.52;;;;;;;20.22;43.30;101608.31;7310968;19;132055;-65
2022/01/02 02:37:52;;;;;;;3.45;1.60;;;;;;;20.22;43.07;101613.88;7311564;19;128970;-64
2022/01/02 02:40:22;;;;;;;5.78;1.67;;;;;;;20.22;43.30;101602.75;7312023;19;131805;-64
2022/01/02 02:54:04;;;;;;;2.13;1.45;;;;;;;20.18;43.45;101601.56;7314519;19;132709;-65
2022/01/02 02:56:56;;;;;;;3.22;1.70;;;;;;;20.18;43.11;101596.00;7310241;19;129131;-64
2022/01/02 02:59:27;;;;;;;3.78;1.88;;;;;;;20.17;43.18;101593.47;7311676;19;132598;-64
2022/01/02 03:01:55;;;;;;;5.00;1.85;;;;;;;20.16;43.06;101592.63;7308860;19;131174;-64
2022/01/02 03:04:23;;;;;;;4.25;1.75;;;;;;;20.16;43.13;101591.75;7312766;19;131113;-64
2022/01/02 03:06:51;;;;;;;3.08;1.50;;;;;;;20.15;42.91;101590.94;7313724;19;129001;-65
2022/01/02 03:09:36;;;;;;;3.42;1.58;;;;;;;20.15;43.18;101582.59;7309475;19;130813;-62
2022/01/02 03:12:07;;;;;;;4.63;1.50;;;;;;;20.14;43.14;101587.28;7313283;19;131178;-64
2022/01/02 03:14:34;;;;;;;4.45;1.55;;;;;;;20.14;43.06;101583.69;7310628;19;131872;-64
2022/01/02 03:17:03;;;;;;;5.28;1.85;;;;;;;20.13;43.08;101570.88;7311140;19;129798;-64
2022/01/02 03:19:31;;;;;;;2.92;1.50;;;;;;;20.13;43.29;101565.31;7309229;19;131181;-63
2022/01/02 03:21:58;;;;;;;4.25;1.60;;;;;;;20.12;43.27;101566.41;7309696;19;131050;-64
2022/01/02 03:24:25;;;;;;;4.63;1.52;;;;;;;20.12;43.12;101563.63;7312338;19;131159;-64
2022/01/02 03:26:52;;;;;;;4.13;1.85;;;;;;;20.11;43.24;101554.47;7309617;19;129290;-64
2022/01/02 03:29:19;;;;;;;3.60;1.58;;;;;;;20.12;43.07;101546.97;7313975;19;128869;-64
2022/01/02 03:31:45;;;;;;;2.88;1.60;;;;;;;20.10;42.95;101544.44;7309322;19;136258;-64
2022/01/02 03:34:12;;;;;;;3.38;1.50;;;;;;;20.10;42.80;101538.00;7309422;19;131964;-64
2022/01/02 03:36:39;;;;;;;3.20;1.60;;;;;;;20.10;42.86;101535.25;7311338;19;129043;-65
2022/01/02 03:39:06;;;;;;;2.30;1.40;;;;;;;20.10;42.78;101538.00;7309466;19;129071;-64
2022/01/02 03:41:32;;;;;;;3.05;1.63;;;;;;;20.08;42.72;101531.84;7310605;19;132180;-64
2022/01/02 03:43:59;;;;;;;2.95;1.65;;;;;;;20.09;43.14;101542.75;7309205;19;131009;-64
2022/01/02 03:46:26;;;;;;;3.30;1.60;;;;;;;20.07;42.97;101531.03;7312671;19;129587;-65
2022/01/02 03:48:53;;;;;;;4.47;1.30;;;;;;;20.09;42.75;101525.22;7306716;19;131232;-64
2022/01/02 03:51:19;;;;;;;6.40;1.65;;;;;;;20.08;42.95;101523.53;7313675;19;131146;-64
2022/01/02 03:53:47;;;;;;;2.70;1.40;;;;;;;20.08;42.90;101518.81;7315205;19;131103;-65
2022/01/02 03:56:13;;;;;;;4.60;1.48;;;;;;;20.06;43.13;101512.66;7316219;19;135770;-64
2022/01/02 03:58:40;;;;;;;3.72;1.42;;;;;;;20.06;42.57;101514.59;7319797;19;130559;-64
2022/01/02 04:01:07;;;;;;;4.35;1.60;;;;;;;20.06;43.10;101514.59;7315630;19;131240;-64
2022/01/02 04:03:34;;;;;;;4.72;1.80;;;;;;;20.05;42.97;101507.34;7319125;19;131897;-63
2022/01/02 04:06:01;;;;;;;3.75;1.58;;;;;;;20.05;42.84;101507.34;7316328;19;128882;-64
2022/01/02 04:08:27;;;;;;;5.28;1.90;;;;;;;20.04;42.94;101502.88;7317733;19;129584;-64
2022/01/02 04:10:54;;;;;;;3.08;1.60;;;;;;;20.04;42.58;101511.22;7313395;19;132380;-64
2022/01/02 04:13:21;;;;;;;4.13;1.60;;;;;;;20.04;42.76;101505.66;7316657;19;132678;-64
2022/01/02 04:15:47;;;;;;;4.43;1.70;;;;;;;20.03;42.80;101506.75;7315777;19;128934;-64
2022/01/02 04:18:14;;;;;;;3.83;1.80;;;;;;;20.03;42.72;101504.81;7313782;19;129119;-63
2022/01/02 04:20:41;;;;;;;3.80;1.70;;;;;;;20.01;42.56;101487.53;7317599;19;131222;-64
2022/01/02 04:23:07;;;;;;;2.42;1.50;;;;;;;20.01;42.46;101479.19;7313878;19;131174;-64
2022/01/02 04:25:34;;;;;;;2.55;1.75;;;;;;;20.00;42.46;101474.72;7319100;19;128937;-64
2022/01/02 04:28:01;;;;;;;3.35;1.50;;;;;;;20.01;42.67;101473.66;7312638;19;130532;-64
2022/01/02 04:30:27;;;;;;;4.05;1.73;;;;;;;20.01;42.91;101456.16;7316323;19;131173;-63
2022/01/02 04:32:54;;;;;;;4.82;1.50;;;;;;;20.01;42.83;101456.16;7315390;19;131080;-64
2022/01/02 04:35:21;;;;;;;5.53;1.88;;;;;;;19.99;42.46;101454.47;7317280;19;129324;-64
2022/01/02 04:37:48;;;;;;;4.40;1.65;;;;;;;19.99;42.85;101443.34;7313971;19;129007;-64
2022/01/02 04:40:15;;;;;;;4.78;1.73;;;;;;;19.98;42.82;101438.84;7315521;19;131168;-64
2022/01/02 04:42:42;;;;;;;4.88;2.17;;;;;;;19.98;42.64;101438.03;7316184;19;131853;-64
2022/01/02 04:45:09;;;;;;;3.95;1.42;;;;;;;19.97;42.59;101439.94;7315660;19;129008;-64
2022/01/02 04:47:36;;;;;;;2.33;1.30;;;;;;;19.97;42.61;101442.72;7317717;19;129091;-64
2022/01/02 04:50:04;;;;;;;5.25;1.85;;;;;;;19.96;42.60;101440.19;7313487;19;131006;-64
2022/01/02 04:52:31;;;;;;;3.05;1.42;;;;;;;19.96;42.71;101443.78;7315750;19;131046;-64
2022/01/02 04:54:58;;;;;;;2.97;1.42;;;;;;;19.95;42.48;101428.22;7314678;19;129626;-65
2022/01/02 04:57:25;;;;;;;3.25;1.48;;;;;;;19.94;42.81;101418.19;7315915;19;129334;-64
2022/01/02 04:59:51;;;;;;;3.65;1.58;;;;;;;19.94;42.53;101401.53;7314599;19;131504;-64
2022/01/02 05:02:18;;;;;;;6.90;2.10;;;;;;;19.95;42.61;101394.06;7311000;19;130944;-63
2022/01/02 05:04:45;;;;;;;3.53;1.50;;;;;;;19.94;42.49;101384.03;7318061;19;129021;-64
2022/01/02 05:07:13;;;;;;;2.47;1.50;;;;;;;19.93;42.66;101383.22;7311524;19;130171;-64
2022/01/02 05:09:40;;;;;;;3.20;1.33;;;;;;;19.93;42.53;101383.22;7317619;19;132403;-64
2022/01/02 05:12:07;;;;;;;5.22;1.67;;;;;;;19.92;42.54;101373.19;7311959;19;131079;-64
2022/01/02 05:14:34;;;;;;;3.88;1.40;;;;;;;19.91;42.34;101373.41;7317061;19;130685;-64
2022/01/02 05:17:00;;;;;;;1.77;1.30;;;;;;;19.91;42.63;101385.38;7312644;19;129041;-64
2022/01/02 05:19:27;;;;;;;3.88;1.40;;;;;;;19.91;42.37;101374.28;7313876;19;131055;-64
2022/01/02 05:21:55;;;;;;;3.45;1.52;;;;;;;19.91;42.33;101370.63;7312511;19;131726;-64
2022/01/02 05:24:21;;;;;;;3.35;1.75;;;;;;;19.91;42.76;101367.88;7314472;19;129673;-64
2022/01/02 05:26:48;;;;;;;2.80;1.27;;;;;;;19.90;42.69;101368.94;7317021;19;129051;-64
2022/01/02 05:29:15;;;;;;;4.13;1.73;;;;;;;19.89;42.44;101370.03;7313494;19;131105;-64
2022/01/02 05:31:42;;;;;;;4.78;1.38;;;;;;;19.88;42.44;101360.88;7315782;19;131264;-64
2022/01/02 05:34:09;;;;;;;3.05;1.55;;;;;;;19.89;42.53;101358.94;7313057;19;129555;-64
2022/01/02 05:36:35;;;;;;;2.97;1.85;;;;;;;19.89;42.66;101353.38;7314759;19;129474;-64
2022/01/02 05:39:03;;;;;;;3.50;1.58;;;;;;;19.88;42.38;101341.44;7313554;19;131133;-64
2022/01/02 05:41:32;;;;;;;2.15;1.40;;;;;;;19.88;42.65;101329.50;7313981;19;130949;-64
2022/01/02 05:43:59;;;;;;;5.82;1.40;;;;;;;19.87;42.65;101309.22;7317589;19;129254;-64
2022/01/02 05:46:26;;;;;;;2.22;1.48;;;;;;;19.86;42.15;101299.19;7312760;19;129039;-64
2022/01/02 05:48:52;;;;;;;3.28;1.50;;;;;;;19.87;42.24;101292.53;7316302;19;131521;-64
2022/01/02 05:51:19;;;;;;;3.20;1.50;;;;;;;19.86;42.37;101278.91;7312403;19;131958;-64
2022/01/02 05:53:46;;;;;;;4.03;1.70;;;;;;;19.86;42.17;101267.81;7314182;19;129016;-64
2022/01/02 05:56:13;;;;;;;2.67;1.48;;;;;;;19.84;42.55;101266.13;7312724;19;129078;-64
2022/01/02 05:58:39;;;;;;;3.22;1.33;;;;;;;19.84;42.54;101248.59;7313374;19;131229;-64
2022/01/02 06:01:06;;;;;;;4.07;1.52;;;;;;;19.84;42.29;101245.84;7316206;19;132378;-65
2022/01/02 06:03:33;;;;;;;3.35;1.50;;;;;;;19.83;42.20;101233.03;7313600;19;129194;-64
2022/01/02 06:06:00;;;;;;;2.63;1.33;;;;;;;19.84;42.43;101229.16;7316375;19;135466;-64
2022/01/02 06:08:27;;;;;;;4.13;1.70;;;;;;;19.83;42.13;101221.94;7312597;19;132152;-64
2022/01/02 06:10:54;;;;;;;5.00;1.63;;;;;;;19.82;42.33;101214.69;7315472;19;131186;-64
2022/01/02 06:13:21;;;;;;;3.85;1.00;;;;;;;19.82;42.26;101206.38;7313188;19;128980;-64
2022/01/02 06:15:48;;;;;;;2.65;1.40;;;;;;;19.82;42.06;101203.59;7313917;19;129429;-64
2022/01/02 06:18:15;;;;;;;4.05;1.75;;;;;;;19.80;42.40;101192.75;7315548;19;132360;-63
2022/01/02 06:20:42;;;;;;;2.53;1.40;;;;;;;19.81;41.98;101168.63;7309648;19;132101;-64
2022/01/02 06:23:08;;;;;;;3.20;1.50;;;;;;;19.80;42.18;101173.31;7316193;19;128743;-64
2022/01/02 06:25:35;;;;;;;5.10;1.98;;;;;;;19.79;42.18;101165.25;7312973;19;130430;-64
2022/01/02 06:28:02;;;;;;;3.42;1.52;;;;;;;19.79;42.08;101177.16;7312110;19;131289;-64
2022/01/02 06:30:29;;;;;;;3.35;1.30;;;;;;;19.80;42.01;101172.47;7315323;19;131547;-64
2022/01/02 06:32:56;;;;;;;3.88;1.48;;;;;;;19.79;42.05;101176.34;7311392;19;129565;-64
2022/01/02 06:35:24;;;;;;;2.63;1.45;;;;;;;19.79;41.85;101168.00;7313546;19;128716;-64
2022/01/02 06:37:51;;;;;;;3.65;1.65;;;;;;;19.78;42.26;101158.00;7312420;19;131124;-65
2022/01/02 06:40:19;;;;;;;2.72;1.40;;;;;;;19.77;42.08;101151.59;7312524;19;131057;-64
2022/01/02 06:42:46;;;;;;;3.53;1.48;;;;;;;19.78;41.80;101146.91;7312527;19;129014;-65
2022/01/02 06:45:14;;;;;;;2.65;1.33;;;;;;;19.77;41.79;101142.44;7311430;19;131210;-65
2022/01/02 06:47:41;;;;;;;3.35;1.42;;;;;;;19.76;41.86;101151.84;7315157;19;131463;-64
2022/01/02 06:50:09;;;;;;;4.18;1.67;;;;;;;19.77;41.93;101156.31;7309546;19;132343;-64
2022/01/02 06:52:36;;;;;;;3.85;1.75;;;;;;;19.76;42.29;101161.00;7313398;19;130864;-64
2022/01/02 06:55:03;;;;;;;4.05;1.35;;;;;;;19.75;41.79;101161.25;7310943;19;129595;-64
2022/01/02 06:57:30;;;;;;;2.78;1.48;;;;;;;19.75;42.23;101156.56;7311888;19;131885;-64
2022/01/02 06:59:56;;;;;;;3.13;1.45;;;;;;;19.74;41.80;101145.69;7313274;19;131931;-65
2022/01/02 07:02:23;;;;;;;3.67;1.42;;;;;;;19.73;41.94;101139.31;7311127;19;130731;-64
2022/01/02 07:04:50;;;;;;;3.00;1.40;;;;;;;19.75;41.70;101141.84;7314745;19;129246;-64
2022/01/02 07:07:17;;;;;;;2.38;1.35;;;;;;;19.75;42.09;101145.47;7309785;19;131107;-64
2022/01/02 07:09:43;;;;;;;3.17;1.70;;;;;;;19.74;42.07;101148.47;7314765;19;131047;-64
2022/01/02 07:12:10;;;;;;;3.88;1.63;;;;;;;19.74;42.07;101157.66;7308716;19;130763;-64
2022/01/02 07:14:37;;;;;;;4.10;1.35;;;;;;;19.76;41.82;101160.19;7311421;19;129033;-64
2022/01/02 07:17:03;;;;;;;1.92;1.20;;;;;;;19.77;41.77;101156.31;7308887;19;131422;-65
2022/01/02 07:19:30;;;;;;;2.85;1.23;;;;;;;19.81;41.99;101144.47;7311955;19;131015;-64
2022/01/02 07:21:58;;;;;;;1.80;1.23;;;;;;;19.84;41.77;101146.75;7312417;19;128917;-65
2022/01/02 07:24:25;;;;;;;2.65;1.33;;;;;;;19.90;42.02;101144.91;7310860;19;129136;-64
2022/01/02 07:26:52;;;;;;;2.97;1.25;;;;;;;19.98;41.54;101151.97;7312376;19;131778;-64
2022/01/02 07:29:19;;;;;;;4.88;1.48;;;;;;;20.06;41.47;101165.47;7308669;19;132190;-64
2022/01/02 07:31:46;;;;;;;3.60;1.35;;;;;;;20.17;41.26;101172.06;7305278;19;129356;-64
2022/01/02 07:34:13;;;;;;;6.38;1.10;;;;;;;20.27;41.15;101177.81;7308076;19;130717;-65
2022/01/02 07:36:44;;;;;;;2.55;1.20;;;;;;;20.36;41.51;101174.59;7311049;19;131808;-64
2022/01/02 07:39:14;;;;;;;2.97;1.20;;;;;;;20.44;41.12;101166.69;7311921;19;131083;-64
2022/01/02 07:41:42;;;;;;;3.97;1.60;;;;;;;20.52;40.69;101161.78;7309432;19;129227;-63
2022/01/02 07:44:08;;;;;;;5.60;1.48;;;;;;;20.57;40.60;101151.59;7311780;19;128859;-64
2022/01/02 07:46:35;;;;;;;8.52;1.65;;;;;;;20.67;40.57;101158.44;7306500;19;131078;-65
2022/01/02 07:49:02;;;;;;;4.10;1.48;;;;;;;20.76;40.47;101165.25;7311898;19;131867;-64
2022/01/02 07:51:29;;;;;;;7.30;1.40;;;;;;;20.87;39.86;101152.34;7308271;19;128898;-65
2022/01/02 07:53:56;;;;;;;6.95;1.45;;;;;;;20.99;39.41;101168.91;7310273;19;132036;-64
2022/01/02 07:56:24;;;;;;;6.50;1.50;;;;;;;21.10;39.25;101184.66;7310060;19;131096;-65
2022/01/02 07:58:51;;;;;;;5.57;1.45;;;;;;;21.18;39.40;101192.53;7311771;19;131956;-65
2022/01/02 08:01:19;;;;;;;7.40;1.60;;;;;;;21.22;38.88;101185.38;7309721;19;130875;-65
2022/01/02 08:03:46;;;;;;;7.55;1.50;;;;;;;21.29;39.05;101195.50;7305344;19;129346;-65
2022/01/02 08:06:13;;;;;;;5.28;1.38;;;;;;;21.31;38.77;101190.47;7311196;19;131925;-65
2022/01/02 08:08:40;;;;;;;8.95;1.70;;;;;;;21.32;39.21;101194.94;7307831;19;131181;-65
2022/01/02 08:11:07;;;;;;;7.22;1.80;;;;;;;21.31;38.89;101190.47;7310591;19;130795;-63
2022/01/02 08:13:34;;;;;;;3.90;1.52;;;;;;;21.30;38.70;101195.22;7307188;19;129100;-65
2022/01/02 08:16:00;;;;;;;5.28;1.50;;;;;;;21.29;38.85;101189.91;7310377;19;131324;-64
2022/01/02 08:18:27;;;;;;;4.03;1.60;;;;;;;21.27;39.19;101186.56;7306848;19;131445;-65
2022/01/02 08:20:55;;;;;;;3.65;1.52;;;;;;;21.23;38.80;101183.44;7308806;19;131110;-65
2022/01/02 08:23:21;;;;;;;2.85;1.48;;;;;;;21.20;38.89;101186.75;7309977;19;128910;-64
2022/01/02 08:26:08;;;;;;;4.27;1.70;;;;;;;21.17;39.05;101190.03;7306060;19;133907;-65
2022/01/02 08:28:36;;;;;;;3.67;1.40;;;;;;;21.13;39.06;101198.06;7309454;19;132323;-64
2022/01/02 08:31:03;;;;;;;6.32;1.63;;;;;;;21.11;39.48;101191.91;7307050;19;128881;-64
2022/01/02 08:33:31;;;;;;;3.63;1.42;;;;;;;21.07;39.52;101190.72;7309872;19;128774;-65
2022/01/02 08:35:57;;;;;;;11.18;1.90;;;;;;;21.02;39.34;101193.44;7304113;19;131109;-65
2022/01/02 08:38:24;;;;;;;4.00;1.70;;;;;;;20.98;39.32;101187.56;7308045;19;136503;-64
2022/01/02 08:40:51;;;;;;;6.35;1.50;;;;;;;20.92;39.23;101187.75;7315884;19;129156;-65
2022/01/02 08:43:17;;;;;;;14.77;1.90;;;;;;;20.87;38.93;101194.91;7313505;19;128975;-64
2022/01/02 08:45:44;;;;;;;10.88;1.65;;;;;;;20.84;39.15;101198.19;7315159;19;131238;-65
2022/01/02 08:48:11;;;;;;;4.47;1.63;;;;;;;20.81;39.43;101198.69;7297534;19;131152;-64
2022/01/02 08:50:38;;;;;;;5.30;2.13;;;;;;;20.77;39.33;101202.22;7308223;19;131235;-63
2022/01/02 08:53:05;;;;;;;4.65;1.58;;;;;;;20.75;39.32;101196.91;7313294;19;129038;-64
2022/01/02 08:55:33;;;;;;;10.93;1.60;;;;;;;20.73;39.61;101190.75;7314397;19;131155;-65
2022/01/02 08:58:00;;;;;;;8.18;2.03;;;;;;;20.73;39.30;101199.09;7311178;19;132415;-66
2022/01/02 09:00:27;;;;;;;9.10;2.13;;;;;;;20.73;39.57;101201.88;7313785;19;131167;-63
2022/01/02 09:02:53;;;;;;;7.47;1.90;;;;;;;20.75;39.77;101197.78;7314367;19;130775;-64
2022/01/02 09:05:21;;;;;;;7.82;1.80;;;;;;;20.80;39.80;101207.28;7316004;19;131981;-63
2022/01/02 09:07:48;;;;;;;6.38;1.88;;;;;;;20.82;39.49;101194.81;7316183;19;134579;-65
2022/01/02 09:10:16;;;;;;;4.60;1.83;;;;;;;20.87;39.78;101185.69;7312899;19;130352;-66
2022/01/02 09:12:43;;;;;;;9.35;2.17;;;;;;;20.93;39.47;101200.53;7315921;19;129043;-66
2022/01/02 09:15:11;;;;;;;4.65;1.67;;;;;;;20.99;39.24;101200.34;7308316;19;131149;-65
2022/01/02 09:17:38;;;;;;;4.65;1.50;;;;;;;21.06;39.55;101197.38;7313158;19;131037;-65
2022/01/02 09:20:07;;;;;;;7.60;1.75;;;;;;;21.13;39.15;101202.75;7311612;19;129151;-65
2022/01/02 09:22:35;;;;;;;6.35;1.85;;;;;;;21.20;39.11;101204.25;7312558;19;131161;-65
2022/01/02 09:25:01;;;;;;;7.30;1.83;;;;;;;21.29;38.98;101203.84;7311957;19;130974;-64
2022/01/02 09:27:28;;;;;;;7.82;1.73;;;;;;;21.36;38.55;101205.31;7312508;19;133821;-65
2022/01/02 09:29:55;;;;;;;5.75;1.92;;;;;;;21.42;38.56;101206.22;7312743;19;130890;-65
2022/01/02 09:32:22;;;;;;;6.43;1.80;;;;;;;21.48;38.36;101199.63;7311406;19;129303;-65
2022/01/02 09:34:49;;;;;;;6.30;2.08;;;;;;;21.55;38.23;101213.38;7314797;19;131255;-65
2022/01/02 09:37:16;;;;;;;7.22;2.00;;;;;;;21.62;38.60;101221.53;7310877;19;131168;-65
2022/01/02 09:39:42;;;;;;;8.60;2.17;;;;;;;21.67;37.98;101210.44;7314283;19;131159;-65
2022/01/02 09:42:12;;;;;;;4.63;1.50;;;;;;;21.71;38.13;101217.19;7310242;19;131297;-65
2022/01/02 09:44:39;;;;;;;6.85;2.08;;;;;;;21.74;37.96;101216.66;7312197;19;131818;-64
2022/01/02 09:47:09;;;;;;;5.63;1.90;;;;;;;21.79;37.57;101218.66;7309484;19;131992;-64
2022/01/02 09:49:38;;;;;;;3.85;2.38;;;;;;;21.83;38.01;101223.44;7301232;19;129014;-63
2022/01/02 09:52:06;;;;;;;6.05;1.77;;;;;;;21.89;37.53;101213.19;7312691;19;129288;-64
2022/01/02 09:54:33;;;;;;;7.07;2.40;;;;;;;21.94;37.42;101223.56;7308900;19;132543;-63
2022/01/02 09:57:01;;;;;;;5.72;1.77;;;;;;;21.99;37.47;101220.84;7314342;19;131667;-65
2022/01/02 09:59:28;;;;;;;5.20;2.05;;;;;;;22.03;37.71;101224.75;7309336;19;129040;-63
2022/01/02 10:01:56;;;;;;;4.28;2.35;;;;;;;22.08;37.56;101222.03;7315012;19;130857;-65
2022/01/02 10:04:42;;;;;;;4.13;2.08;;;;;;;22.11;37.40;101210.38;7309878;19;131957;-64
2022/01/02 10:07:34;;;;;;;3.83;1.80;;;;;;;22.15;37.44;101209.88;7310288;19;132454;-64
2022/01/02 10:10:10;;;;;;;5.45;1.80;;;;;;;22.18;37.60;101224.09;7308664;19;130553;-64
2022/01/02 10:12:37;;;;;;;5.00;2.05;;;;;;;22.21;37.83;101233.91;7311499;19;131771;-65
2022/01/02 10:15:13;;;;;;;3.10;1.92;;;;;;;22.24;37.78;101225.84;7312440;19;131230;-64
2022/01/02 10:18:09;;;;;;;4.03;2.10;;;;;;;22.27;37.45;101230.91;7307738;19;131221;-64
2022/01/02 10:20:45;;;;;;;5.15;1.95;;;;;;;22.31;37.47;101233.16;7306788;19;130971;-64
2022/01/02 10:23:18;;;;;;;5.13;2.00;;;;;;;22.34;37.76;101236.25;7295155;19;129761;-65
2022/01/02 10:25:55;;;;;;;3.83;1.98;;;;;;;22.36;37.42;101225.69;7295224;19;132283;-64
2022/01/02 10:28:35;;;;;;;4.82;2.00;;;;;;;22.40;37.50;101234.38;7302674;19;131646;-63
2022/01/02 10:31:10;;;;;;;7.70;1.98;;;;;;;22.42;37.24;101227.41;7296458;19;132201;-65
2022/01/02 10:33:59;;;;;;;3.97;1.95;;;;;;;22.44;37.03;101229.94;7301865;19;132025;-65
2022/01/02 10:36:40;;;;;;;4.68;2.25;;;;;;;22.44;37.48;101224.38;7299899;19;131390;-66
2022/01/02 10:39:15;;;;;;;3.97;1.80;;;;;;;22.43;37.30;101231.88;7301615;19;131446;-62
2022/01/02 10:41:52;;;;;;;4.70;1.80;;;;;;;22.42;37.44;101230.19;7300717;19;128968;-66
2022/01/02 10:44:31;;;;;;;3.65;1.80;;;;;;;22.42;37.55;101223.78;7299855;19;131136;-66
2022/01/02 10:47:05;;;;;;;4.82;1.88;;;;;;;22.42;37.79;101221.00;7301329;19;131216;-65
2022/01/02 10:49:50;;;;;;;4.65;1.55;;;;;;;22.43;37.20;101217.94;7296041;19;132343;-66
2022/01/02 10:52:29;;;;;;;5.40;1.90;;;;;;;22.42;37.47;101207.91;7299612;19;138282;-66
2022/01/02 10:54:59;;;;;;;6.05;2.20;;;;;;;22.41;37.32;101211.78;7297554;19;128916;-66
2022/01/02 10:57:28;;;;;;;8.93;2.03;;;;;;;22.40;37.83;101207.31;7300730;19;132099;-66
2022/01/02 10:59:57;;;;;;;6.68;2.17;;;;;;;22.41;37.60;101203.44;7295855;19;132231;-66
2022/01/02 11:02:25;;;;;;;4.40;1.88;;;;;;;22.41;37.54;101220.16;7301814;19;129891;-66
2022/01/02 11:05:05;;;;;;;4.28;1.88;;;;;;;22.41;37.05;101208.16;7302888;19;132879;-66
2022/01/02 11:07:39;;;;;;;4.85;2.17;;;;;;;22.38;37.13;101219.84;7300317;19;131183;-63
2022/01/02 11:10:07;;;;;;;4.28;2.00;;;;;;;22.33;37.44;101212.28;7303071;19;131169;-66
2022/01/02 11:12:34;;;;;;;7.18;1.88;;;;;;;22.29;37.07;101211.13;7294870;19;129836;-64
2022/01/02 11:15:01;;;;;;;10.95;1.98;;;;;;;22.26;37.42;101214.47;7298383;19;129655;-63
2022/01/02 11:17:29;;;;;;;13.60;2.40;;;;;;;22.20;37.22;101201.53;7292289;19;131354;-63
2022/01/02 11:19:59;;;;;;;11.73;2.60;;;;;;;22.18;37.11;101201.81;7296824;19;129514;-63
2022/01/02 11:22:34;;;;;;;11.02;2.88;;;;;;;22.17;37.31;101207.63;7296227;19;132726;-62
2022/01/02 11:25:11;;;;;;;7.70;2.30;;;;;;;22.14;37.37;101225.72;7299931;19;129740;-63
2022/01/02 11:27:49;;;;;;;9.68;2.03;;;;;;;22.11;36.92;101203.94;7284055;19;131680;-63
2022/01/02 11:30:32;;;;;;;14.25;2.42;;;;;;;22.09;36.91;101212.59;7294696;19;131914;-62
2022/01/02 11:33:08;;;;;;;10.02;2.55;;;;;;;22.09;37.36;101212.59;7300887;19;133071;-61
2022/01/02 11:35:37;;;;;;;6.95;2.85;;;;;;;22.06;37.64;101204.75;7295085;19;130517;-63
2022/01/02 11:38:06;;;;;;;8.90;2.40;;;;;;;22.06;37.45;101213.09;7300509;19;132744;-62
2022/01/02 11:40:58;;;;;;;5.32;2.28;;;;;;;22.06;37.24;101201.13;7298784;19;131807;-62